Ryazhsk, Russia
Current Conditions -  °F | °C
As of 10:00 AM on Monday 22 Dec 2014 (Local Time) from UUDD Reporting Station
Broken Clouds Broken Clouds  
Wind Chill: 20°   Ceiling: 2500
Heat Index: 30°   Visibility: 6mi
Dew Point: 25°   Wind: 13mph
Humidity: 80%   Direction: 260°W
Pressure: 29.5"   Gusts: NA
Location:  53.71°N, 40.07°E
Report Text: UUDD 220700Z 26006MPS 9999 BKN025CB M01/M04 Q0999 3255019582550195 NOSIG
Loading
Personal Weather Stations






























Interactive Weather Map New forecast layout! Learn more

10-Day Weather Forecast

Advertisements
Track Severe Weather on mobile